Terminal Aerodrome Forecast
Issued by NWS Amarillo, TX

Current Version | Previous Version | Text Only | Print | Product List | Glossary On
Versions: 1 2 3 4 5 6 7 8 9 10 11 12 13 14 15 16 17 18 19
000
FTUS44 KAMA 220428 AAA
TAFDHT
TAF AMD
KDHT 220428Z 2204/2224 18010KT P6SM SCT100 BKN250
      TEMPO 2204/2206 5SM -TSRA BKN030CB OVC050CB
     FM221000 19012KT P6SM BKN250
     FM221800 18018G26KT P6SM SCT080 SCT150=

USA.gov is the U.S. government's official web portal to all federal, state and local government web resources and services.